sensor_id;sensor_type;location;lat;lon;timestamp;pressure;altitude;pressure_sealevel;temperature;humidity
66762;BME280;53672;48.176;16.338;2022-10-12T00:03:07;99951.50;;;14.10;75.75
66762;BME280;53672;48.176;16.338;2022-10-12T00:08:07;99939.84;;;14.09;75.67
66762;BME280;53672;48.176;16.338;2022-10-12T00:13:09;99935.25;;;14.05;75.78
66762;BME280;53672;48.176;16.338;2022-10-12T00:18:11;99944.75;;;14.02;75.96
66762;BME280;53672;48.176;16.338;2022-10-12T00:23:12;99942.63;;;13.99;76.25
66762;BME280;53672;48.176;16.338;2022-10-12T00:28:13;99946.97;;;14.00;76.22
66762;BME280;53672;48.176;16.338;2022-10-12T00:33:14;99941.56;;;13.95;76.61
66762;BME280;53672;48.176;16.338;2022-10-12T00:38:15;99944.31;;;13.90;76.75
66762;BME280;53672;48.176;16.338;2022-10-12T00:43:28;99937.53;;;13.88;76.06
66762;BME280;53672;48.176;16.338;2022-10-12T00:48:31;99946.25;;;13.85;75.71
66762;BME280;53672;48.176;16.338;2022-10-12T00:53:34;99941.16;;;13.78;75.94
66762;BME280;53672;48.176;16.338;2022-10-12T00:58:37;99944.44;;;13.70;75.84
66762;BME280;53672;48.176;16.338;2022-10-12T01:03:39;99950.97;;;13.64;75.77
66762;BME280;53672;48.176;16.338;2022-10-12T01:08:41;99947.78;;;13.57;75.92
66762;BME280;53672;48.176;16.338;2022-10-12T01:13:41;99941.59;;;13.51;75.82
66762;BME280;53672;48.176;16.338;2022-10-12T01:18:47;99940.00;;;13.45;75.83
66762;BME280;53672;48.176;16.338;2022-10-12T01:24:21;99937.59;;;13.39;76.26
66762;BME280;53672;48.176;16.338;2022-10-12T01:34:52;99947.38;;;13.30;76.04
66762;BME280;53672;48.176;16.338;2022-10-12T01:39:54;99955.53;;;13.25;76.36
66762;BME280;53672;48.176;16.338;2022-10-12T01:45:03;99951.19;;;13.18;76.77
66762;BME280;53672;48.176;16.338;2022-10-12T01:50:08;99944.19;;;13.12;76.92
66762;BME280;53672;48.176;16.338;2022-10-12T01:55:20;99937.69;;;13.08;76.47
66762;BME280;53672;48.176;16.338;2022-10-12T02:00:22;99936.63;;;13.09;76.41
66762;BME280;53672;48.176;16.338;2022-10-12T02:05:30;99937.72;;;13.03;76.44
66762;BME280;53672;48.176;16.338;2022-10-12T02:10:37;99940.97;;;13.00;76.73
66762;BME280;53672;48.176;16.338;2022-10-12T02:15:40;99935.31;;;12.97;76.91
66762;BME280;53672;48.176;16.338;2022-10-12T02:20:45;99943.94;;;12.99;77.58
66762;BME280;53672;48.176;16.338;2022-10-12T02:25:46;99939.34;;;12.99;76.62
66762;BME280;53672;48.176;16.338;2022-10-12T02:30:49;99938.81;;;12.97;76.90
66762;BME280;53672;48.176;16.338;2022-10-12T02:35:55;99938.28;;;12.95;76.80
66762;BME280;53672;48.176;16.338;2022-10-12T02:41:01;99943.97;;;12.89;76.46
66762;BME280;53672;48.176;16.338;2022-10-12T02:46:04;99936.44;;;12.81;76.43
66762;BME280;53672;48.176;16.338;2022-10-12T02:51:09;99942.16;;;12.69;76.13
66762;BME280;53672;48.176;16.338;2022-10-12T02:56:12;99948.13;;;12.56;76.48
66762;BME280;53672;48.176;16.338;2022-10-12T03:01:13;99947.06;;;12.42;76.54
66762;BME280;53672;48.176;16.338;2022-10-12T03:06:16;99947.88;;;12.32;76.52
66762;BME280;53672;48.176;16.338;2022-10-12T03:11:16;99944.38;;;12.22;76.75
66762;BME280;53672;48.176;16.338;2022-10-12T03:16:17;99940.88;;;12.11;76.80
66762;BME280;53672;48.176;16.338;2022-10-12T03:21:19;99933.31;;;11.98;76.90
66762;BME280;53672;48.176;16.338;2022-10-12T03:26:19;99934.63;;;11.90;76.04
66762;BME280;53672;48.176;16.338;2022-10-12T03:31:20;99946.78;;;11.78;76.87
66762;BME280;53672;48.176;16.338;2022-10-12T03:36:22;99939.16;;;11.69;76.75
66762;BME280;53672;48.176;16.338;2022-10-12T03:41:22;99941.06;;;11.64;77.15
66762;BME280;53672;48.176;16.338;2022-10-12T03:46:23;99934.81;;;11.58;77.34
66762;BME280;53672;48.176;16.338;2022-10-12T03:51:25;99930.00;;;11.60;77.46
66762;BME280;53672;48.176;16.338;2022-10-12T03:56:25;99928.34;;;11.59;77.75
66762;BME280;53672;48.176;16.338;2022-10-12T04:01:26;99932.69;;;11.60;78.14
66762;BME280;53672;48.176;16.338;2022-10-12T04:06:28;99939.44;;;11.63;77.68
66762;BME280;53672;48.176;16.338;2022-10-12T04:11:28;99939.97;;;11.60;77.46
66762;BME280;53672;48.176;16.338;2022-10-12T04:16:28;99934.03;;;11.63;78.35
66762;BME280;53672;48.176;16.338;2022-10-12T04:21:30;99940.53;;;11.67;77.69
66762;BME280;53672;48.176;16.338;2022-10-12T04:26:31;99943.00;;;11.74;77.67
66762;BME280;53672;48.176;16.338;2022-10-12T04:31:32;99937.88;;;11.77;75.70
66762;BME280;53672;48.176;16.338;2022-10-12T04:36:33;99933.00;;;11.79;74.97
66762;BME280;53672;48.176;16.338;2022-10-12T04:41:34;99934.91;;;11.84;74.11
66762;BME280;53672;48.176;16.338;2022-10-12T04:46:34;99934.09;;;11.83;73.56
66762;BME280;53672;48.176;16.338;2022-10-12T04:51:36;99928.44;;;11.85;73.94
66762;BME280;53672;48.176;16.338;2022-10-12T04:56:37;99934.91;;;11.84;73.66
66762;BME280;53672;48.176;16.338;2022-10-12T05:01:37;99931.91;;;11.85;73.12
66762;BME280;53672;48.176;16.338;2022-10-12T05:06:39;99934.63;;;11.85;73.71
66762;BME280;53672;48.176;16.338;2022-10-12T05:11:40;99936.81;;;11.88;73.41
66762;BME280;53672;48.176;16.338;2022-10-12T05:16:40;99933.84;;;11.85;73.13
66762;BME280;53672;48.176;16.338;2022-10-12T05:21:42;99937.84;;;11.82;73.24
66762;BME280;53672;48.176;16.338;2022-10-12T05:26:42;99940.84;;;11.71;74.43
66762;BME280;53672;48.176;16.338;2022-10-12T05:31:43;99950.75;;;11.65;75.03
66762;BME280;53672;48.176;16.338;2022-10-12T05:36:45;99955.06;;;11.56;75.27
66762;BME280;53672;48.176;16.338;2022-10-12T05:41:45;99958.31;;;11.58;75.52
66762;BME280;53672;48.176;16.338;2022-10-12T05:46:46;99963.19;;;11.66;75.53
66762;BME280;53672;48.176;16.338;2022-10-12T05:51:48;99968.94;;;11.80;74.80
66762;BME280;53672;48.176;16.338;2022-10-12T05:56:48;99968.66;;;11.86;71.67
66762;BME280;53672;48.176;16.338;2022-10-12T06:01:49;99967.59;;;11.97;70.79
66762;BME280;53672;48.176;16.338;2022-10-12T06:06:51;99971.94;;;12.13;69.66
66762;BME280;53672;48.176;16.338;2022-10-12T06:11:51;99977.91;;;12.26;69.45
66762;BME280;53672;48.176;16.338;2022-10-12T06:16:52;99984.38;;;12.35;69.55
66762;BME280;53672;48.176;16.338;2022-10-12T06:21:54;99995.72;;;12.42;69.43
66762;BME280;53672;48.176;16.338;2022-10-12T06:26:54;99996.53;;;12.47;68.89
66762;BME280;53672;48.176;16.338;2022-10-12T06:31:55;100006.81;;;12.55;68.27
66762;BME280;53672;48.176;16.338;2022-10-12T06:36:57;100005.72;;;12.61;67.31
66762;BME280;53672;48.176;16.338;2022-10-12T06:41:57;100010.28;;;12.71;66.42
66762;BME280;53672;48.176;16.338;2022-10-12T06:46:58;100015.16;;;12.84;66.38
66762;BME280;53672;48.176;16.338;2022-10-12T06:52:00;100010.78;;;12.98;65.70
66762;BME280;53672;48.176;16.338;2022-10-12T06:57:00;100018.09;;;13.03;64.55
66762;BME280;53672;48.176;16.338;2022-10-12T07:02:01;100013.72;;;13.22;63.82
66762;BME280;53672;48.176;16.338;2022-10-12T07:07:03;100020.38;;;13.55;62.84
66762;BME280;53672;48.176;16.338;2022-10-12T07:12:04;100030.69;;;14.02;61.38
66762;BME280;53672;48.176;16.338;2022-10-12T07:17:04;100024.81;;;14.34;59.65
66762;BME280;53672;48.176;16.338;2022-10-12T07:22:06;100021.97;;;14.49;58.86
66762;BME280;53672;48.176;16.338;2022-10-12T07:27:08;100019.81;;;14.46;58.78
66762;BME280;53672;48.176;16.338;2022-10-12T07:32:09;100021.47;;;14.76;58.19
66762;BME280;53672;48.176;16.338;2022-10-12T07:37:11;100022.22;;;15.10;57.20
66762;BME280;53672;48.176;16.338;2022-10-12T07:42:12;100019.38;;;15.44;55.97
66762;BME280;53672;48.176;16.338;2022-10-12T07:47:12;100011.88;;;15.36;55.67
66762;BME280;53672;48.176;16.338;2022-10-12T07:52:14;100016.38;;;16.06;54.32
66762;BME280;53672;48.176;16.338;2022-10-12T07:57:15;100015.28;;;16.26;52.87
66762;BME280;53672;48.176;16.338;2022-10-12T08:02:15;100008.22;;;16.25;52.72
66762;BME280;53672;48.176;16.338;2022-10-12T08:07:17;100009.69;;;16.68;51.67
66762;BME280;53672;48.176;16.338;2022-10-12T08:12:17;100006.75;;;17.24;50.38
66762;BME280;53672;48.176;16.338;2022-10-12T08:17:18;100006.19;;;16.95;50.29
66762;BME280;53672;48.176;16.338;2022-10-12T08:22:20;99993.06;;;16.70;51.55
66762;BME280;53672;48.176;16.338;2022-10-12T08:27:20;99993.06;;;16.70;51.22
66762;BME280;53672;48.176;16.338;2022-10-12T08:32:21;99997.34;;;17.03;50.65
66762;BME280;53672;48.176;16.338;2022-10-12T08:37:23;99998.03;;;16.95;50.70
66762;BME280;53672;48.176;16.338;2022-10-12T08:42:37;100000.19;;;16.98;49.58
66762;BME280;53672;48.176;16.338;2022-10-12T08:47:43;100006.84;;;17.19;50.30
66762;BME280;53672;48.176;16.338;2022-10-12T08:52:52;100012.28;;;17.06;50.34
66762;BME280;53672;48.176;16.338;2022-10-12T08:57:55;100007.03;;;17.37;49.07
66762;BME280;53672;48.176;16.338;2022-10-12T09:03:06;100012.44;;;17.91;48.32
66762;BME280;53672;48.176;16.338;2022-10-12T09:08:14;100008.84;;;18.40;47.18
66762;BME280;53672;48.176;16.338;2022-10-12T09:13:28;100003.22;;;19.20;44.06
66762;BME280;53672;48.176;16.338;2022-10-12T09:18:35;100002.59;;;19.80;43.58
66762;BME280;53672;48.176;16.338;2022-10-12T09:23:40;100001.47;;;20.07;42.24
66762;BME280;53672;48.176;16.338;2022-10-12T09:28:42;100006.13;;;20.75;41.56
66762;BME280;53672;48.176;16.338;2022-10-12T09:33:47;99999.63;;;21.35;40.04
66762;BME280;53672;48.176;16.338;2022-10-12T09:38:51;100002.25;;;21.60;39.17
66762;BME280;53672;48.176;16.338;2022-10-12T09:43:54;99999.78;;;21.38;39.42
66762;BME280;53672;48.176;16.338;2022-10-12T09:48:57;99999.78;;;21.67;38.93
66762;BME280;53672;48.176;16.338;2022-10-12T09:54:00;100001.19;;;22.56;36.43
66762;BME280;53672;48.176;16.338;2022-10-12T09:59:04;100003.78;;;22.73;35.92
66762;BME280;53672;48.176;16.338;2022-10-12T10:04:09;100003.50;;;23.36;34.98
66762;BME280;53672;48.176;16.338;2022-10-12T10:09:28;100005.25;;;25.31;31.97
66762;BME280;53672;48.176;16.338;2022-10-12T10:14:29;99998.16;;;25.30;32.33
66762;BME280;53672;48.176;16.338;2022-10-12T10:19:30;99998.22;;;23.06;34.86
66762;BME280;53672;48.176;16.338;2022-10-12T10:24:32;99994.84;;;23.58;34.84
66762;BME280;53672;48.176;16.338;2022-10-12T10:29:34;99988.66;;;23.49;34.95
66762;BME280;53672;48.176;16.338;2022-10-12T10:34:35;99985.41;;;23.83;32.80
66762;BME280;53672;48.176;16.338;2022-10-12T10:39:44;99989.75;;;22.99;35.75
66762;BME280;53672;48.176;16.338;2022-10-12T10:44:48;99978.28;;;25.24;32.05
66762;BME280;53672;48.176;16.338;2022-10-12T10:49:54;99980.16;;;25.05;32.00
66762;BME280;53672;48.176;16.338;2022-10-12T10:55:17;99965.97;;;24.75;32.10
66762;BME280;53672;48.176;16.338;2022-10-12T11:00:19;99965.69;;;24.21;33.17
66762;BME280;53672;48.176;16.338;2022-10-12T11:05:24;99951.13;;;23.68;34.86
66762;BME280;53672;48.176;16.338;2022-10-12T11:10:31;99951.25;;;22.99;34.50
66762;BME280;53672;48.176;16.338;2022-10-12T11:15:38;99946.00;;;21.46;37.71
66762;BME280;53672;48.176;16.338;2022-10-12T11:20:50;99951.88;;;22.06;36.74
66762;BME280;53672;48.176;16.338;2022-10-12T11:26:00;99947.94;;;21.45;37.05
66762;BME280;53672;48.176;16.338;2022-10-12T11:31:06;99947.56;;;21.76;37.99
66762;BME280;53672;48.176;16.338;2022-10-12T11:36:16;99941.41;;;22.20;37.54
66762;BME280;53672;48.176;16.338;2022-10-12T11:41:21;99940.13;;;22.51;36.47
66762;BME280;53672;48.176;16.338;2022-10-12T11:46:30;99931.22;;;21.59;37.37
66762;BME280;53672;48.176;16.338;2022-10-12T11:51:31;99935.13;;;20.99;39.34
66762;BME280;53672;48.176;16.338;2022-10-12T11:56:38;99930.16;;;20.29;40.07
66762;BME280;53672;48.176;16.338;2022-10-12T12:01:54;99924.97;;;22.00;37.58
66762;BME280;53672;48.176;16.338;2022-10-12T12:07:00;99925.34;;;22.10;36.90
66762;BME280;53672;48.176;16.338;2022-10-12T12:12:16;99921.00;;;21.18;39.00
66762;BME280;53672;48.176;16.338;2022-10-12T12:17:22;99914.78;;;21.00;39.86
66762;BME280;53672;48.176;16.338;2022-10-12T12:22:32;99923.06;;;21.50;38.42
66762;BME280;53672;48.176;16.338;2022-10-12T12:27:36;99913.41;;;21.44;38.65
66762;BME280;53672;48.176;16.338;2022-10-12T12:32:43;99924.63;;;21.01;38.63
66762;BME280;53672;48.176;16.338;2022-10-12T12:37:46;99918.06;;;21.73;37.69
66762;BME280;53672;48.176;16.338;2022-10-12T12:42:48;99907.03;;;20.64;39.28
66762;BME280;53672;48.176;16.338;2022-10-12T12:47:49;99908.00;;;20.68;40.14
66762;BME280;53672;48.176;16.338;2022-10-12T12:52:50;99899.94;;;19.83;41.48
66762;BME280;53672;48.176;16.338;2022-10-12T12:58:07;99892.88;;;19.08;43.87
66762;BME280;53672;48.176;16.338;2022-10-12T13:03:36;99898.16;;;19.04;44.11
66762;BME280;53672;48.176;16.338;2022-10-12T13:09:04;99896.47;;;19.25;43.90
66762;BME280;53672;48.176;16.338;2022-10-12T13:14:21;99891.97;;;19.21;43.51
66762;BME280;53672;48.176;16.338;2022-10-12T13:19:25;99887.47;;;18.77;44.96
66762;BME280;53672;48.176;16.338;2022-10-12T13:24:28;99890.09;;;18.51;45.82
66762;BME280;53672;48.176;16.338;2022-10-12T13:29:34;99886.75;;;18.94;45.18
66762;BME280;53672;48.176;16.338;2022-10-12T13:34:42;99891.19;;;19.38;44.57
66762;BME280;53672;48.176;16.338;2022-10-12T13:39:45;99891.78;;;19.17;44.96
66762;BME280;53672;48.176;16.338;2022-10-12T13:44:47;99884.88;;;19.20;45.00
66762;BME280;53672;48.176;16.338;2022-10-12T13:49:48;99880.66;;;19.05;45.40
66762;BME280;53672;48.176;16.338;2022-10-12T13:54:49;99876.19;;;18.39;47.57
66762;BME280;53672;48.176;16.338;2022-10-12T13:59:54;99880.41;;;18.14;48.39
66762;BME280;53672;48.176;16.338;2022-10-12T14:04:57;99883.06;;;18.06;48.74
66762;BME280;53672;48.176;16.338;2022-10-12T14:10:03;99881.75;;;17.81;49.77
66762;BME280;53672;48.176;16.338;2022-10-12T14:15:07;99880.97;;;17.81;50.49
66762;BME280;53672;48.176;16.338;2022-10-12T14:20:16;99884.75;;;17.93;50.63
66762;BME280;53672;48.176;16.338;2022-10-12T14:25:19;99881.16;;;17.84;51.20
66762;BME280;53672;48.176;16.338;2022-10-12T14:30:24;99872.84;;;17.67;51.89
66762;BME280;53672;48.176;16.338;2022-10-12T14:35:27;99876.00;;;17.47;52.31
66762;BME280;53672;48.176;16.338;2022-10-12T14:40:34;99868.13;;;17.45;52.21
66762;BME280;53672;48.176;16.338;2022-10-12T14:45:36;99861.63;;;17.33;53.08
66762;BME280;53672;48.176;16.338;2022-10-12T14:50:37;99856.41;;;17.09;53.92
66762;BME280;53672;48.176;16.338;2022-10-12T14:55:38;99849.19;;;17.27;53.00
66762;BME280;53672;48.176;16.338;2022-10-12T15:00:40;99854.69;;;17.13;53.69
66762;BME280;53672;48.176;16.338;2022-10-12T15:05:40;99852.06;;;17.21;53.72
66762;BME280;53672;48.176;16.338;2022-10-12T15:10:40;99855.63;;;17.08;54.66
66762;BME280;53672;48.176;16.338;2022-10-12T15:15:44;99857.22;;;16.96;55.38
66762;BME280;53672;48.176;16.338;2022-10-12T15:20:45;99856.41;;;16.54;57.11
66762;BME280;53672;48.176;16.338;2022-10-12T15:25:48;99859.44;;;16.53;57.49
66762;BME280;53672;48.176;16.338;2022-10-12T15:30:51;99859.53;;;16.48;58.08
66762;BME280;53672;48.176;16.338;2022-10-12T15:35:51;99858.69;;;16.34;59.21
66762;BME280;53672;48.176;16.338;2022-10-12T15:40:52;99856.09;;;16.29;58.99
66762;BME280;53672;48.176;16.338;2022-10-12T15:45:54;99855.47;;;16.18;59.79
66762;BME280;53672;48.176;16.338;2022-10-12T15:50:54;99856.56;;;16.17;59.56
66762;BME280;53672;48.176;16.338;2022-10-12T15:55:55;99860.25;;;16.07;60.44
66762;BME280;53672;48.176;16.338;2022-10-12T16:00:57;99853.97;;;15.93;61.17
66762;BME280;53672;48.176;16.338;2022-10-12T16:05:58;99852.19;;;15.70;62.43
66762;BME280;53672;48.176;16.338;2022-10-12T16:10:58;99840.88;;;15.63;62.95
66762;BME280;53672;48.176;16.338;2022-10-12T16:16:02;99845.97;;;15.51;64.12
66762;BME280;53672;48.176;16.338;2022-10-12T16:21:03;99844.91;;;15.47;64.57
66762;BME280;53672;48.176;16.338;2022-10-12T16:26:06;99838.44;;;15.43;65.36
66762;BME280;53672;48.176;16.338;2022-10-12T16:31:10;99842.84;;;15.39;65.60
66762;BME280;53672;48.176;16.338;2022-10-12T16:36:13;99848.66;;;15.32;66.49
66762;BME280;53672;48.176;16.338;2022-10-12T16:41:15;99846.53;;;15.29;66.63
66762;BME280;53672;48.176;16.338;2022-10-12T16:46:17;99854.69;;;15.29;66.88
66762;BME280;53672;48.176;16.338;2022-10-12T16:51:17;99852.84;;;15.24;67.19
66762;BME280;53672;48.176;16.338;2022-10-12T16:56:18;99854.50;;;15.20;67.58
66762;BME280;53672;48.176;16.338;2022-10-12T17:01:20;99857.22;;;15.20;67.72
66762;BME280;53672;48.176;16.338;2022-10-12T17:06:20;99862.09;;;15.23;67.47
66762;BME280;53672;48.176;16.338;2022-10-12T17:11:21;99869.22;;;15.19;68.26
66762;BME280;53672;48.176;16.338;2022-10-12T17:16:23;99870.31;;;15.18;68.22
66762;BME280;53672;48.176;16.338;2022-10-12T17:21:23;99873.03;;;15.18;68.59
66762;BME280;53672;48.176;16.338;2022-10-12T17:26:24;99860.31;;;15.14;68.93
66762;BME280;53672;48.176;16.338;2022-10-12T17:31:26;99862.03;;;15.10;69.47
66762;BME280;53672;48.176;16.338;2022-10-12T17:36:27;99866.69;;;15.04;69.68
66762;BME280;53672;48.176;16.338;2022-10-12T17:41:28;99868.66;;;14.99;68.97
66762;BME280;53672;48.176;16.338;2022-10-12T17:46:30;99871.16;;;14.95;70.21
66762;BME280;53672;48.176;16.338;2022-10-12T17:51:31;99867.69;;;14.90;69.96
66762;BME280;53672;48.176;16.338;2022-10-12T17:56:32;99863.38;;;14.89;70.36
66762;BME280;53672;48.176;16.338;2022-10-12T18:01:34;99864.19;;;14.89;70.60
66762;BME280;53672;48.176;16.338;2022-10-12T18:06:34;99868.00;;;14.88;71.11
66762;BME280;53672;48.176;16.338;2022-10-12T18:11:36;99867.47;;;14.86;71.09
66762;BME280;53672;48.176;16.338;2022-10-12T18:16:38;99869.97;;;14.83;71.07
66762;BME280;53672;48.176;16.338;2022-10-12T18:21:39;99865.41;;;14.78;71.26
66762;BME280;53672;48.176;16.338;2022-10-12T18:26:41;99859.16;;;14.78;72.35
66762;BME280;53672;48.176;16.338;2022-10-12T18:31:44;99864.34;;;14.74;72.49
66762;BME280;53672;48.176;16.338;2022-10-12T18:36:44;99867.03;;;14.79;72.32
66762;BME280;53672;48.176;16.338;2022-10-12T18:41:48;99871.88;;;14.82;72.25
66762;BME280;53672;48.176;16.338;2022-10-12T18:46:52;99873.69;;;14.87;71.89
66762;BME280;53672;48.176;16.338;2022-10-12T18:51:53;99872.91;;;14.86;72.00
66762;BME280;53672;48.176;16.338;2022-10-12T18:56:54;99870.28;;;14.76;71.49
66762;BME280;53672;48.176;16.338;2022-10-12T19:01:57;99869.44;;;14.57;71.97
66762;BME280;53672;48.176;16.338;2022-10-12T19:06:59;99869.81;;;14.45;72.66
66762;BME280;53672;48.176;16.338;2022-10-12T19:12:00;99873.00;;;14.23;73.38
66762;BME280;53672;48.176;16.338;2022-10-12T19:17:04;99871.25;;;14.09;73.99
66762;BME280;53672;48.176;16.338;2022-10-12T19:22:05;99875.91;;;14.03;74.19
66762;BME280;53672;48.176;16.338;2022-10-12T19:27:06;99876.25;;;13.97;75.00
66762;BME280;53672;48.176;16.338;2022-10-12T19:32:09;99872.25;;;13.89;74.98
66762;BME280;53672;48.176;16.338;2022-10-12T19:37:10;99875.03;;;13.79;75.31
66762;BME280;53672;48.176;16.338;2022-10-12T19:42:11;99871.03;;;13.71;75.14
66762;BME280;53672;48.176;16.338;2022-10-12T19:47:13;99876.00;;;13.59;75.88
66762;BME280;53672;48.176;16.338;2022-10-12T19:52:14;99880.16;;;13.42;76.54
66762;BME280;53672;48.176;16.338;2022-10-12T19:57:15;99875.13;;;13.25;77.11
66762;BME280;53672;48.176;16.338;2022-10-12T20:02:18;99868.66;;;13.16;77.86
66762;BME280;53672;48.176;16.338;2022-10-12T20:07:20;99866.53;;;13.03;78.38
66762;BME280;53672;48.176;16.338;2022-10-12T20:12:21;99866.59;;;12.93;78.41
66762;BME280;53672;48.176;16.338;2022-10-12T20:17:23;99866.38;;;12.84;79.19
66762;BME280;53672;48.176;16.338;2022-10-12T20:22:23;99865.88;;;12.72;79.48
66762;BME280;53672;48.176;16.338;2022-10-12T20:27:24;99863.75;;;12.59;79.69
66762;BME280;53672;48.176;16.338;2022-10-12T20:32:27;99858.91;;;12.41;80.21
66762;BME280;53672;48.176;16.338;2022-10-12T20:37:27;99858.97;;;12.26;81.31
66762;BME280;53672;48.176;16.338;2022-10-12T20:42:28;99868.72;;;12.11;81.88
66762;BME280;53672;48.176;16.338;2022-10-12T20:47:30;99876.53;;;12.03;81.90
66762;BME280;53672;48.176;16.338;2022-10-12T20:52:30;99864.94;;;11.92;82.67
66762;BME280;53672;48.176;16.338;2022-10-12T20:57:31;99877.38;;;11.88;83.33
66762;BME280;53672;48.176;16.338;2022-10-12T21:02:33;99880.09;;;11.88;83.52
66762;BME280;53672;48.176;16.338;2022-10-12T21:07:34;99870.88;;;11.89;83.14
66762;BME280;53672;48.176;16.338;2022-10-12T21:12:34;99874.94;;;11.82;84.41
66762;BME280;53672;48.176;16.338;2022-10-12T21:17:36;99871.44;;;11.71;85.05
66762;BME280;53672;48.176;16.338;2022-10-12T21:22:37;99868.69;;;11.66;84.51
66762;BME280;53672;48.176;16.338;2022-10-12T21:27:37;99871.38;;;11.61;84.96
66762;BME280;53672;48.176;16.338;2022-10-12T21:32:39;99861.13;;;11.53;85.93
66762;BME280;53672;48.176;16.338;2022-10-12T21:37:40;99861.66;;;11.50;86.27
66762;BME280;53672;48.176;16.338;2022-10-12T21:42:40;99858.38;;;11.38;86.61
66762;BME280;53672;48.176;16.338;2022-10-12T21:47:42;99855.97;;;11.26;86.88
66762;BME280;53672;48.176;16.338;2022-10-12T21:52:42;99856.44;;;11.13;87.09
66762;BME280;53672;48.176;16.338;2022-10-12T21:57:43;99855.88;;;11.01;88.03
66762;BME280;53672;48.176;16.338;2022-10-12T22:02:45;99855.03;;;10.90;88.71
66762;BME280;53672;48.176;16.338;2022-10-12T22:07:45;99864.72;;;10.81;89.06
66762;BME280;53672;48.176;16.338;2022-10-12T22:12:46;99862.50;;;10.73;89.21
66762;BME280;53672;48.176;16.338;2022-10-12T22:17:48;99851.44;;;10.64;89.77
66762;BME280;53672;48.176;16.338;2022-10-12T22:22:48;99855.44;;;10.57;89.74
66762;BME280;53672;48.176;16.338;2022-10-12T22:27:49;99853.81;;;10.51;90.06
66762;BME280;53672;48.176;16.338;2022-10-12T22:32:51;99850.53;;;10.44;89.80
66762;BME280;53672;48.176;16.338;2022-10-12T22:37:51;99845.09;;;10.39;90.07
66762;BME280;53672;48.176;16.338;2022-10-12T22:42:51;99857.75;;;10.38;90.97
66762;BME280;53672;48.176;16.338;2022-10-12T22:47:53;99853.22;;;10.49;90.30
66762;BME280;53672;48.176;16.338;2022-10-12T22:52:54;99847.59;;;10.55;89.77
66762;BME280;53672;48.176;16.338;2022-10-12T22:57:54;99841.44;;;10.60;88.46
66762;BME280;53672;48.176;16.338;2022-10-12T23:02:56;99839.31;;;10.67;88.77
66762;BME280;53672;48.176;16.338;2022-10-12T23:07:57;99836.63;;;10.72;88.45
66762;BME280;53672;48.176;16.338;2022-10-12T23:12:57;99847.97;;;10.74;88.25
66762;BME280;53672;48.176;16.338;2022-10-12T23:17:59;99848.78;;;10.75;88.55
66762;BME280;53672;48.176;16.338;2022-10-12T23:23:00;99846.38;;;10.78;88.41
66762;BME280;53672;48.176;16.338;2022-10-12T23:28:00;99845.56;;;10.78;88.35
66762;BME280;53672;48.176;16.338;2022-10-12T23:33:02;99839.59;;;10.76;87.81
66762;BME280;53672;48.176;16.338;2022-10-12T23:38:03;99844.72;;;10.72;88.07
66762;BME280;53672;48.176;16.338;2022-10-12T23:43:03;99841.47;;;10.70;88.12
66762;BME280;53672;48.176;16.338;2022-10-12T23:48:05;99836.09;;;10.65;88.18
66762;BME280;53672;48.176;16.338;2022-10-12T23:53:06;99843.88;;;10.61;88.15
66762;BME280;53672;48.176;16.338;2022-10-12T23:58:06;99834.13;;;10.55;88.70
